METAR AND TAF INFORMATION
METAR FOR EHVK
ADDS - METARS form results

(1005 UTC 25 January 2021)
Data provider http://aviationweather.gov/metar/data/
 
METAR text: EHVK 250955Z AUTO 34003KT 300V010 9999 SCT068 01/M01 Q1004 BLU NOSIG
Conditions at: EHVK (VOLKEL RNLAFB , NL) observed 0955 UTC 25 January 2021
Temperature: 1.0°C (34°F)
Dewpoint: -1.0°C (30°F) [RH = 86%]
Pressure (altimeter): 29.65 inches Hg (1004.0 mb)
Winds: from the NNW (340 degrees) at 3 MPH (3 knots; 1.5 m/s)
Visibility: 6 or more miles (10+ km)
Ceiling: at least 12,000 feet AGL
Clouds: scattered clouds at 6800 feet AGL
Weather: no significant weather observed at this time

METAR text: EHVK 250935Z AUTO VRB02KT 9000 BR FEW071 01/M01 Q1004 BLU NOSIG
Conditions at: EHVK (VOLKEL RNLAFB , NL) observed 0935 UTC 25 January 2021
Temperature: 1.0°C (34°F)
Dewpoint: -1.0°C (30°F) [RH = 86%]
Pressure (altimeter): 29.65 inches Hg (1004.0 mb)
Winds: variable direction winds at 2 MPH (2 knots; 1.0 m/s)
Visibility: 6 miles ( 9 km)
Ceiling: at least 12,000 feet AGL
Clouds: few clouds at 7100 feet AGL
Weather: BR  (mist)

METAR text: EHVK 250925Z AUTO VRB02KT 8000 BR FEW065 01/M01 Q1004 BLU NOSIG
Conditions at: EHVK (VOLKEL RNLAFB , NL) observed 0925 UTC 25 January 2021
Temperature: 1.0°C (34°F)
Dewpoint: -1.0°C (30°F) [RH = 86%]
Pressure (altimeter): 29.65 inches Hg (1004.0 mb)
Winds: variable direction winds at 2 MPH (2 knots; 1.0 m/s)
Visibility: 5 miles ( 8 km)
Ceiling: at least 12,000 feet AGL
Clouds: few clouds at 6500 feet AGL
Weather: BR  (mist)

Forecast for: EHVK (VOLKEL RNLAFB , NL)
Text: TAF EHVK 250435Z 2506/2518 02004KT 6000 BKN012 OVC022
Forecast period: 0600 to 1800 UTC 25 January 2021
Forecast type: FROM: standard forecast or significant change
Winds: from the NNE (20 degrees) at 5 MPH (4 knots; 2.1 m/s)
Visibility: 4 miles (6 km)
Ceiling: 1200 feet AGL
Clouds: broken clouds at 1200 feet AGL
overcast cloud deck at 2200 feet AGL
Weather: no significant weather forecast for this period
Text: BECMG 2506/2508 34005KT FEW030
Forecast period: 0600 to 1100 UTC 25 January 2021
Forecast type: BECOMING: Conditions expected to become as follows by 0800 UTC 25 January 2021
Winds: from the NNW (340 degrees) at 6 MPH (5 knots; 2.6 m/s)
Visibility: 4 miles (6 km)
Ceiling: at least 12,000 feet AGL
Clouds: few clouds at 3000 feet AGL
Weather: no significant weather forecast for this period
Text: BECMG 2511/2513 29006KT
Forecast period: 1100 to 1400 UTC 25 January 2021
Forecast type: BECOMING: Conditions expected to become as follows by 1300 UTC 25 January 2021
Winds: from the WNW (290 degrees) at 7 MPH (6 knots; 3.1 m/s)
Visibility: 4 miles (6 km)
Ceiling: at least 12,000 feet AGL
Clouds: few clouds at 3000 feet AGL
Weather: no significant weather forecast for this period
Text: BECMG 2514/2516 24007KT
Forecast period: 1400 to 1800 UTC 25 January 2021
Forecast type: BECOMING: Conditions expected to become as follows by 1600 UTC 25 January 2021
Winds: from the WSW (240 degrees) at 8 MPH (7 knots; 3.6 m/s)
Visibility: 4 miles (6 km)
Ceiling: at least 12,000 feet AGL
Clouds: few clouds at 3000 feet AGL
Weather: no significant weather forecast for this period

 AIRPORT MAP

 RUNWAY INFORMATION
Runway 06L Runway length 9922 ft Runway width 148 ft
Runway elevation 71 ft Runway displaced threshold 444 ft Runway heading 58
Runway 24R Runway length 9922 ft Runway width 148 ft
Runway elevation 64 ft Runway displaced threshold 444 ft Runway heading 238
Runway 06R Runway length 9931 ft Runway width 74 ft
Runway elevation 72 ft Runway displaced threshold 446 ft Runway heading 58
Runway 24L Runway length 9931 ft Runway width 74 ft
Runway elevation 65 ft Runway displaced threshold 446 ft Runway heading 238

 AIRPORT FREQUENCIES
Type APP Name RAPCON SOU Frequency 123.175 MHZ
Type GND Name GND Frequency 38.677 MHZ
Type TWR Name TWR Frequency 133.425 MHZ

 AIRPORT NEAR NAVIGATION AIDS
Type TACAN Name Volkel Frequency 108300 KHZ